Schedule Details


Flight Number: CTN417
Departure: Frankfurt/main (EDDF) at 10:05
Arrival: Franjo Tudman (LDZA) at 11:30
Route: NOMBO UZ738 MUN UM867 VAROB DCT PIKIT DCT ARGOM

Weather Information
EDDF 081320Z VRB04KT CAVOK 23/03 Q1023 NOSIG
LDZA 081300Z VRB02KT CAVOK 20/M04 Q1026 NOSIG
Schedule Frequency

Route Map